sensor_id;sensor_type;location;lat;lon;timestamp;temperature;humidity
18906;DHT22;9585;51.018;4.282;2022-09-21T00:00:48;7.20;99.90
18906;DHT22;9585;51.018;4.282;2022-09-21T00:03:17;7.20;99.90
18906;DHT22;9585;51.018;4.282;2022-09-21T00:05:45;7.20;99.90
18906;DHT22;9585;51.018;4.282;2022-09-21T00:08:14;7.10;99.90
18906;DHT22;9585;51.018;4.282;2022-09-21T00:10:42;7.10;99.90
18906;DHT22;9585;51.018;4.282;2022-09-21T00:13:15;7.10;99.90
18906;DHT22;9585;51.018;4.282;2022-09-21T00:15:44;7.00;99.90
18906;DHT22;9585;51.018;4.282;2022-09-21T00:18:12;7.00;99.90
18906;DHT22;9585;51.018;4.282;2022-09-21T00:20:40;7.10;99.90
18906;DHT22;9585;51.018;4.282;2022-09-21T00:23:09;7.00;99.90
18906;DHT22;9585;51.018;4.282;2022-09-21T00:25:38;7.00;99.90
18906;DHT22;9585;51.018;4.282;2022-09-21T00:28:05;7.00;99.90
18906;DHT22;9585;51.018;4.282;2022-09-21T00:30:33;6.90;99.90
18906;DHT22;9585;51.018;4.282;2022-09-21T00:33:01;6.90;99.90
18906;DHT22;9585;51.018;4.282;2022-09-21T00:35:28;6.90;99.90
18906;DHT22;9585;51.018;4.282;2022-09-21T00:38:00;6.90;99.90
18906;DHT22;9585;51.018;4.282;2022-09-21T00:40:28;6.90;99.90
18906;DHT22;9585;51.018;4.282;2022-09-21T00:45:58;6.90;99.90
18906;DHT22;9585;51.018;4.282;2022-09-21T00:48:27;6.80;99.90
18906;DHT22;9585;51.018;4.282;2022-09-21T00:50:59;6.80;99.90
18906;DHT22;9585;51.018;4.282;2022-09-21T00:53:28;6.80;99.90
18906;DHT22;9585;51.018;4.282;2022-09-21T00:55:57;6.80;99.90
18906;DHT22;9585;51.018;4.282;2022-09-21T00:58:28;6.80;99.90
18906;DHT22;9585;51.018;4.282;2022-09-21T01:00:59;6.80;99.90
18906;DHT22;9585;51.018;4.282;2022-09-21T01:03:29;6.70;99.90
18906;DHT22;9585;51.018;4.282;2022-09-21T01:05:57;6.70;99.90
18906;DHT22;9585;51.018;4.282;2022-09-21T01:08:26;6.70;99.90
18906;DHT22;9585;51.018;4.282;2022-09-21T01:11:28;6.70;99.90
18906;DHT22;9585;51.018;4.282;2022-09-21T01:16:58;6.70;99.90
18906;DHT22;9585;51.018;4.282;2022-09-21T01:19:45;6.60;99.90
18906;DHT22;9585;51.018;4.282;2022-09-21T01:22:26;6.60;99.90
18906;DHT22;9585;51.018;4.282;2022-09-21T01:25:07;6.60;99.90
18906;DHT22;9585;51.018;4.282;2022-09-21T01:27:59;6.60;99.90
18906;DHT22;9585;51.018;4.282;2022-09-21T01:30:33;6.50;99.90
18906;DHT22;9585;51.018;4.282;2022-09-21T01:33:05;6.50;99.90
18906;DHT22;9585;51.018;4.282;2022-09-21T01:35:40;6.50;99.90
18906;DHT22;9585;51.018;4.282;2022-09-21T01:38:11;6.50;99.90
18906;DHT22;9585;51.018;4.282;2022-09-21T01:40:42;6.40;99.90
18906;DHT22;9585;51.018;4.282;2022-09-21T01:43:14;6.40;99.90
18906;DHT22;9585;51.018;4.282;2022-09-21T01:45:49;6.40;99.90
18906;DHT22;9585;51.018;4.282;2022-09-21T01:48:20;6.40;99.90
18906;DHT22;9585;51.018;4.282;2022-09-21T01:50:53;6.40;99.90
18906;DHT22;9585;51.018;4.282;2022-09-21T01:53:24;6.40;99.90
18906;DHT22;9585;51.018;4.282;2022-09-21T01:55:57;6.40;99.90
18906;DHT22;9585;51.018;4.282;2022-09-21T01:58:30;6.40;99.90
18906;DHT22;9585;51.018;4.282;2022-09-21T02:01:02;6.40;99.90
18906;DHT22;9585;51.018;4.282;2022-09-21T02:03:35;6.30;99.90
18906;DHT22;9585;51.018;4.282;2022-09-21T02:06:04;6.30;99.90
18906;DHT22;9585;51.018;4.282;2022-09-21T02:08:32;6.30;99.90
18906;DHT22;9585;51.018;4.282;2022-09-21T02:11:00;6.30;99.90
18906;DHT22;9585;51.018;4.282;2022-09-21T02:13:31;6.30;99.90
18906;DHT22;9585;51.018;4.282;2022-09-21T02:16:15;6.30;99.90
18906;DHT22;9585;51.018;4.282;2022-09-21T02:18:52;6.20;99.90
18906;DHT22;9585;51.018;4.282;2022-09-21T02:21:27;6.20;99.90
18906;DHT22;9585;51.018;4.282;2022-09-21T02:24:05;6.10;99.90
18906;DHT22;9585;51.018;4.282;2022-09-21T02:26:41;6.10;99.90
18906;DHT22;9585;51.018;4.282;2022-09-21T02:29:15;6.10;99.90
18906;DHT22;9585;51.018;4.282;2022-09-21T02:31:50;6.10;99.90
18906;DHT22;9585;51.018;4.282;2022-09-21T02:34:23;6.00;99.90
18906;DHT22;9585;51.018;4.282;2022-09-21T02:36:57;6.00;99.90
18906;DHT22;9585;51.018;4.282;2022-09-21T02:39:32;6.00;99.90
18906;DHT22;9585;51.018;4.282;2022-09-21T02:42:05;6.00;99.90
18906;DHT22;9585;51.018;4.282;2022-09-21T02:44:38;6.00;99.90
18906;DHT22;9585;51.018;4.282;2022-09-21T02:47:12;6.00;99.90
18906;DHT22;9585;51.018;4.282;2022-09-21T02:49:47;6.00;99.90
18906;DHT22;9585;51.018;4.282;2022-09-21T02:52:16;6.00;99.90
18906;DHT22;9585;51.018;4.282;2022-09-21T02:54:47;6.00;99.90
18906;DHT22;9585;51.018;4.282;2022-09-21T02:57:17;6.00;99.90
18906;DHT22;9585;51.018;4.282;2022-09-21T02:59:45;6.00;99.90
18906;DHT22;9585;51.018;4.282;2022-09-21T03:02:14;6.00;99.90
18906;DHT22;9585;51.018;4.282;2022-09-21T03:04:44;5.90;99.90
18906;DHT22;9585;51.018;4.282;2022-09-21T03:07:13;5.90;99.90
18906;DHT22;9585;51.018;4.282;2022-09-21T03:09:40;5.90;99.90
18906;DHT22;9585;51.018;4.282;2022-09-21T03:12:08;5.90;99.90
18906;DHT22;9585;51.018;4.282;2022-09-21T03:14:36;5.90;99.90
18906;DHT22;9585;51.018;4.282;2022-09-21T03:17:04;5.90;99.90
18906;DHT22;9585;51.018;4.282;2022-09-21T03:19:33;5.90;99.90
18906;DHT22;9585;51.018;4.282;2022-09-21T03:22:00;5.90;99.90
18906;DHT22;9585;51.018;4.282;2022-09-21T03:24:29;5.90;99.90
18906;DHT22;9585;51.018;4.282;2022-09-21T03:27:15;5.80;99.90
18906;DHT22;9585;51.018;4.282;2022-09-21T03:29:43;5.80;99.90
18906;DHT22;9585;51.018;4.282;2022-09-21T03:32:11;5.80;99.90
18906;DHT22;9585;51.018;4.282;2022-09-21T03:34:40;5.80;99.90
18906;DHT22;9585;51.018;4.282;2022-09-21T03:37:09;5.80;99.90
18906;DHT22;9585;51.018;4.282;2022-09-21T03:39:36;5.80;99.90
18906;DHT22;9585;51.018;4.282;2022-09-21T03:42:04;5.70;99.90
18906;DHT22;9585;51.018;4.282;2022-09-21T03:44:31;5.60;99.90
18906;DHT22;9585;51.018;4.282;2022-09-21T03:46:59;5.60;99.90
18906;DHT22;9585;51.018;4.282;2022-09-21T03:49:27;5.50;99.90
18906;DHT22;9585;51.018;4.282;2022-09-21T03:51:56;5.50;99.90
18906;DHT22;9585;51.018;4.282;2022-09-21T03:54:24;5.60;99.90
18906;DHT22;9585;51.018;4.282;2022-09-21T03:56:51;5.60;99.90
18906;DHT22;9585;51.018;4.282;2022-09-21T03:59:19;5.60;99.90
18906;DHT22;9585;51.018;4.282;2022-09-21T04:01:46;5.60;99.90
18906;DHT22;9585;51.018;4.282;2022-09-21T04:04:13;5.60;99.90
18906;DHT22;9585;51.018;4.282;2022-09-21T04:06:41;5.50;99.90
18906;DHT22;9585;51.018;4.282;2022-09-21T04:09:12;5.50;99.90
18906;DHT22;9585;51.018;4.282;2022-09-21T04:11:40;5.50;99.90
18906;DHT22;9585;51.018;4.282;2022-09-21T04:14:07;5.50;99.90
18906;DHT22;9585;51.018;4.282;2022-09-21T04:16:35;5.50;99.90
18906;DHT22;9585;51.018;4.282;2022-09-21T04:19:02;5.50;99.90
18906;DHT22;9585;51.018;4.282;2022-09-21T04:21:30;5.40;99.90
18906;DHT22;9585;51.018;4.282;2022-09-21T04:23:57;5.40;99.90
18906;DHT22;9585;51.018;4.282;2022-09-21T04:26:30;5.30;99.90
18906;DHT22;9585;51.018;4.282;2022-09-21T04:28:58;5.20;99.90
18906;DHT22;9585;51.018;4.282;2022-09-21T04:31:26;5.20;99.90
18906;DHT22;9585;51.018;4.282;2022-09-21T04:33:57;5.30;99.90
18906;DHT22;9585;51.018;4.282;2022-09-21T04:36:28;5.30;99.90
18906;DHT22;9585;51.018;4.282;2022-09-21T04:38:58;5.30;99.90
18906;DHT22;9585;51.018;4.282;2022-09-21T04:41:27;5.30;99.90
18906;DHT22;9585;51.018;4.282;2022-09-21T04:43:55;5.30;99.90
18906;DHT22;9585;51.018;4.282;2022-09-21T04:46:22;5.30;99.90
18906;DHT22;9585;51.018;4.282;2022-09-21T04:48:49;5.30;99.90
18906;DHT22;9585;51.018;4.282;2022-09-21T04:51:17;5.30;99.90
18906;DHT22;9585;51.018;4.282;2022-09-21T04:53:45;5.30;99.90
18906;DHT22;9585;51.018;4.282;2022-09-21T04:56:14;5.30;99.90
18906;DHT22;9585;51.018;4.282;2022-09-21T04:58:43;5.20;99.90
18906;DHT22;9585;51.018;4.282;2022-09-21T05:01:10;5.20;99.90
18906;DHT22;9585;51.018;4.282;2022-09-21T05:03:38;5.20;99.90
18906;DHT22;9585;51.018;4.282;2022-09-21T05:06:05;5.20;99.90
18906;DHT22;9585;51.018;4.282;2022-09-21T05:08:34;5.20;99.90
18906;DHT22;9585;51.018;4.282;2022-09-21T05:11:18;5.20;99.90
18906;DHT22;9585;51.018;4.282;2022-09-21T05:13:47;5.10;99.90
18906;DHT22;9585;51.018;4.282;2022-09-21T05:16:15;5.10;99.90
18906;DHT22;9585;51.018;4.282;2022-09-21T05:18:43;5.10;99.90
18906;DHT22;9585;51.018;4.282;2022-09-21T05:21:12;5.20;99.90
18906;DHT22;9585;51.018;4.282;2022-09-21T05:23:39;5.20;99.90
18906;DHT22;9585;51.018;4.282;2022-09-21T05:26:07;5.20;99.90
18906;DHT22;9585;51.018;4.282;2022-09-21T05:28:35;5.20;99.90
18906;DHT22;9585;51.018;4.282;2022-09-21T05:31:12;5.30;99.90
18906;DHT22;9585;51.018;4.282;2022-09-21T05:33:43;5.30;99.90
18906;DHT22;9585;51.018;4.282;2022-09-21T05:36:27;5.30;99.90
18906;DHT22;9585;51.018;4.282;2022-09-21T05:38:59;5.30;99.90
18906;DHT22;9585;51.018;4.282;2022-09-21T05:41:27;5.30;99.90
18906;DHT22;9585;51.018;4.282;2022-09-21T05:43:54;5.30;99.90
18906;DHT22;9585;51.018;4.282;2022-09-21T05:46:35;5.30;99.90
18906;DHT22;9585;51.018;4.282;2022-09-21T05:49:08;5.40;99.90
18906;DHT22;9585;51.018;4.282;2022-09-21T05:51:39;5.50;99.90
18906;DHT22;9585;51.018;4.282;2022-09-21T05:54:13;5.60;99.90
18906;DHT22;9585;51.018;4.282;2022-09-21T05:56:49;5.60;99.90
18906;DHT22;9585;51.018;4.282;2022-09-21T05:59:37;5.70;99.90
18906;DHT22;9585;51.018;4.282;2022-09-21T06:02:15;5.80;99.90
18906;DHT22;9585;51.018;4.282;2022-09-21T06:04:45;5.80;99.90
18906;DHT22;9585;51.018;4.282;2022-09-21T06:07:14;5.90;99.90
18906;DHT22;9585;51.018;4.282;2022-09-21T06:09:41;5.90;99.90
18906;DHT22;9585;51.018;4.282;2022-09-21T06:12:09;5.90;99.90
18906;DHT22;9585;51.018;4.282;2022-09-21T06:14:36;6.10;99.90
18906;DHT22;9585;51.018;4.282;2022-09-21T06:17:04;6.30;99.90
18906;DHT22;9585;51.018;4.282;2022-09-21T06:19:33;6.40;99.90
18906;DHT22;9585;51.018;4.282;2022-09-21T06:22:01;6.50;99.90
18906;DHT22;9585;51.018;4.282;2022-09-21T06:24:28;6.60;99.90
18906;DHT22;9585;51.018;4.282;2022-09-21T06:26:55;6.80;99.90
18906;DHT22;9585;51.018;4.282;2022-09-21T06:29:23;6.80;99.90
18906;DHT22;9585;51.018;4.282;2022-09-21T06:31:50;6.90;99.90
18906;DHT22;9585;51.018;4.282;2022-09-21T06:34:17;7.00;99.90
18906;DHT22;9585;51.018;4.282;2022-09-21T06:36:46;7.20;99.90
18906;DHT22;9585;51.018;4.282;2022-09-21T06:39:13;7.70;99.90
18906;DHT22;9585;51.018;4.282;2022-09-21T06:41:40;8.10;99.90
18906;DHT22;9585;51.018;4.282;2022-09-21T06:44:08;8.50;99.90
18906;DHT22;9585;51.018;4.282;2022-09-21T06:46:35;9.00;99.90
18906;DHT22;9585;51.018;4.282;2022-09-21T06:49:02;9.50;99.90
18906;DHT22;9585;51.018;4.282;2022-09-21T06:51:30;10.20;99.90
18906;DHT22;9585;51.018;4.282;2022-09-21T06:53:58;10.70;99.90
18906;DHT22;9585;51.018;4.282;2022-09-21T06:56:26;11.00;99.90
18906;DHT22;9585;51.018;4.282;2022-09-21T06:58:55;11.20;99.90
18906;DHT22;9585;51.018;4.282;2022-09-21T07:01:28;11.40;99.90
18906;DHT22;9585;51.018;4.282;2022-09-21T07:03:55;11.80;99.90
18906;DHT22;9585;51.018;4.282;2022-09-21T07:06:22;12.40;99.90
18906;DHT22;9585;51.018;4.282;2022-09-21T07:08:50;13.20;99.90
18906;DHT22;9585;51.018;4.282;2022-09-21T07:11:19;14.00;99.90
18906;DHT22;9585;51.018;4.282;2022-09-21T07:13:49;14.70;99.90
18906;DHT22;9585;51.018;4.282;2022-09-21T07:16:16;15.60;99.90
18906;DHT22;9585;51.018;4.282;2022-09-21T07:18:44;16.10;99.90
18906;DHT22;9585;51.018;4.282;2022-09-21T07:21:11;16.60;99.90
18906;DHT22;9585;51.018;4.282;2022-09-21T07:23:39;16.90;99.90
18906;DHT22;9585;51.018;4.282;2022-09-21T07:26:08;17.00;99.90
18906;DHT22;9585;51.018;4.282;2022-09-21T07:28:38;17.20;99.90
18906;DHT22;9585;51.018;4.282;2022-09-21T07:31:06;17.60;99.90
18906;DHT22;9585;51.018;4.282;2022-09-21T07:33:34;16.70;99.90
18906;DHT22;9585;51.018;4.282;2022-09-21T07:36:03;16.60;99.90
18906;DHT22;9585;51.018;4.282;2022-09-21T07:38:35;16.80;99.90
18906;DHT22;9585;51.018;4.282;2022-09-21T07:41:03;16.80;99.90
18906;DHT22;9585;51.018;4.282;2022-09-21T07:43:30;16.60;99.90
18906;DHT22;9585;51.018;4.282;2022-09-21T07:46:00;17.00;99.90
18906;DHT22;9585;51.018;4.282;2022-09-21T07:48:28;17.50;99.90
18906;DHT22;9585;51.018;4.282;2022-09-21T07:51:00;17.40;99.90
18906;DHT22;9585;51.018;4.282;2022-09-21T07:53:29;17.10;99.90
18906;DHT22;9585;51.018;4.282;2022-09-21T07:56:00;17.30;99.90
18906;DHT22;9585;51.018;4.282;2022-09-21T07:58:28;17.50;99.90
18906;DHT22;9585;51.018;4.282;2022-09-21T08:01:14;17.10;99.90
18906;DHT22;9585;51.018;4.282;2022-09-21T08:03:42;17.10;99.90
18906;DHT22;9585;51.018;4.282;2022-09-21T08:06:09;16.60;99.90
18906;DHT22;9585;51.018;4.282;2022-09-21T08:08:37;16.40;99.90
18906;DHT22;9585;51.018;4.282;2022-09-21T08:11:07;16.50;99.90
18906;DHT22;9585;51.018;4.282;2022-09-21T08:13:36;16.30;99.90
18906;DHT22;9585;51.018;4.282;2022-09-21T08:16:04;16.60;99.90
18906;DHT22;9585;51.018;4.282;2022-09-21T08:18:35;15.70;99.90
18906;DHT22;9585;51.018;4.282;2022-09-21T08:21:03;16.40;99.90
18906;DHT22;9585;51.018;4.282;2022-09-21T08:23:31;16.50;99.90
18906;DHT22;9585;51.018;4.282;2022-09-21T08:25:59;17.40;99.90
18906;DHT22;9585;51.018;4.282;2022-09-21T08:28:27;18.00;99.90
18906;DHT22;9585;51.018;4.282;2022-09-21T08:30:58;18.50;99.90
18906;DHT22;9585;51.018;4.282;2022-09-21T08:33:25;18.90;99.90
18906;DHT22;9585;51.018;4.282;2022-09-21T08:35:56;18.60;99.90
18906;DHT22;9585;51.018;4.282;2022-09-21T08:38:24;18.30;99.90
18906;DHT22;9585;51.018;4.282;2022-09-21T08:40:52;17.80;99.90
18906;DHT22;9585;51.018;4.282;2022-09-21T08:43:26;17.80;99.90
18906;DHT22;9585;51.018;4.282;2022-09-21T08:45:57;17.50;99.90
18906;DHT22;9585;51.018;4.282;2022-09-21T08:48:28;17.00;99.90
18906;DHT22;9585;51.018;4.282;2022-09-21T08:51:00;16.80;99.90
18906;DHT22;9585;51.018;4.282;2022-09-21T08:53:32;16.70;99.90
18906;DHT22;9585;51.018;4.282;2022-09-21T08:56:01;16.60;99.90
18906;DHT22;9585;51.018;4.282;2022-09-21T08:58:30;16.50;99.90
18906;DHT22;9585;51.018;4.282;2022-09-21T09:01:11;16.50;99.90
18906;DHT22;9585;51.018;4.282;2022-09-21T09:03:57;16.20;99.90
18906;DHT22;9585;51.018;4.282;2022-09-21T09:06:32;15.80;99.90
18906;DHT22;9585;51.018;4.282;2022-09-21T09:09:18;16.00;99.90
18906;DHT22;9585;51.018;4.282;2022-09-21T09:12:01;16.10;99.90
18906;DHT22;9585;51.018;4.282;2022-09-21T09:14:54;16.20;99.90
18906;DHT22;9585;51.018;4.282;2022-09-21T09:17:35;16.10;99.90
18906;DHT22;9585;51.018;4.282;2022-09-21T09:20:09;16.20;99.90
18906;DHT22;9585;51.018;4.282;2022-09-21T09:22:42;16.00;99.90
18906;DHT22;9585;51.018;4.282;2022-09-21T09:25:16;15.90;99.90
18906;DHT22;9585;51.018;4.282;2022-09-21T09:27:46;16.00;99.90
18906;DHT22;9585;51.018;4.282;2022-09-21T09:30:17;15.90;99.90
18906;DHT22;9585;51.018;4.282;2022-09-21T09:32:51;16.00;99.90
18906;DHT22;9585;51.018;4.282;2022-09-21T09:35:27;16.20;99.90
18906;DHT22;9585;51.018;4.282;2022-09-21T09:37:58;16.20;99.90
18906;DHT22;9585;51.018;4.282;2022-09-21T09:40:50;16.50;99.90
18906;DHT22;9585;51.018;4.282;2022-09-21T09:43:30;16.30;99.90
18906;DHT22;9585;51.018;4.282;2022-09-21T09:46:08;16.30;99.90
18906;DHT22;9585;51.018;4.282;2022-09-21T09:49:09;16.50;99.90
18906;DHT22;9585;51.018;4.282;2022-09-21T09:51:38;16.70;99.90
18906;DHT22;9585;51.018;4.282;2022-09-21T09:54:13;17.00;99.90
18906;DHT22;9585;51.018;4.282;2022-09-21T09:56:41;17.20;99.90
18906;DHT22;9585;51.018;4.282;2022-09-21T09:59:15;17.30;99.90
18906;DHT22;9585;51.018;4.282;2022-09-21T10:01:46;17.40;99.90
18906;DHT22;9585;51.018;4.282;2022-09-21T10:04:24;16.90;99.90
18906;DHT22;9585;51.018;4.282;2022-09-21T10:06:52;16.50;99.90
18906;DHT22;9585;51.018;4.282;2022-09-21T10:09:25;16.20;99.90
18906;DHT22;9585;51.018;4.282;2022-09-21T10:11:57;16.10;99.90
18906;DHT22;9585;51.018;4.282;2022-09-21T10:14:28;16.20;99.90
18906;DHT22;9585;51.018;4.282;2022-09-21T10:17:03;16.60;99.90
18906;DHT22;9585;51.018;4.282;2022-09-21T10:19:31;16.60;99.90
18906;DHT22;9585;51.018;4.282;2022-09-21T10:22:00;16.80;99.90
18906;DHT22;9585;51.018;4.282;2022-09-21T10:24:35;17.00;99.90
18906;DHT22;9585;51.018;4.282;2022-09-21T10:27:09;17.30;99.90
18906;DHT22;9585;51.018;4.282;2022-09-21T10:29:40;17.50;99.90
18906;DHT22;9585;51.018;4.282;2022-09-21T10:32:23;17.50;99.90
18906;DHT22;9585;51.018;4.282;2022-09-21T10:35:14;18.00;99.90
18906;DHT22;9585;51.018;4.282;2022-09-21T10:37:44;18.00;99.90
18906;DHT22;9585;51.018;4.282;2022-09-21T10:40:28;18.20;99.90
18906;DHT22;9585;51.018;4.282;2022-09-21T10:42:58;18.60;99.90
18906;DHT22;9585;51.018;4.282;2022-09-21T10:45:27;18.50;99.90
18906;DHT22;9585;51.018;4.282;2022-09-21T10:48:07;18.20;99.90
18906;DHT22;9585;51.018;4.282;2022-09-21T10:50:37;17.90;99.90
18906;DHT22;9585;51.018;4.282;2022-09-21T10:53:12;17.50;99.90
18906;DHT22;9585;51.018;4.282;2022-09-21T10:55:57;17.30;99.90
18906;DHT22;9585;51.018;4.282;2022-09-21T10:58:33;17.50;99.90
18906;DHT22;9585;51.018;4.282;2022-09-21T11:01:10;18.10;99.90
18906;DHT22;9585;51.018;4.282;2022-09-21T11:03:51;18.40;99.90
18906;DHT22;9585;51.018;4.282;2022-09-21T11:06:26;18.20;99.90
18906;DHT22;9585;51.018;4.282;2022-09-21T11:09:04;17.90;99.90
18906;DHT22;9585;51.018;4.282;2022-09-21T11:11:44;17.80;99.90
18906;DHT22;9585;51.018;4.282;2022-09-21T11:17:13;18.20;99.90
18906;DHT22;9585;51.018;4.282;2022-09-21T11:19:50;18.10;99.90
18906;DHT22;9585;51.018;4.282;2022-09-21T11:22:23;17.90;99.90
18906;DHT22;9585;51.018;4.282;2022-09-21T11:25:17;17.70;99.90
18906;DHT22;9585;51.018;4.282;2022-09-21T11:27:52;17.50;99.90
18906;DHT22;9585;51.018;4.282;2022-09-21T11:30:20;17.30;99.90
18906;DHT22;9585;51.018;4.282;2022-09-21T11:33:12;17.10;99.90
18906;DHT22;9585;51.018;4.282;2022-09-21T11:35:54;17.40;99.90
18906;DHT22;9585;51.018;4.282;2022-09-21T11:38:35;17.70;99.90
18906;DHT22;9585;51.018;4.282;2022-09-21T11:41:22;17.60;99.90
18906;DHT22;9585;51.018;4.282;2022-09-21T11:46:47;17.20;99.90
18906;DHT22;9585;51.018;4.282;2022-09-21T11:49:33;17.00;99.90
18906;DHT22;9585;51.018;4.282;2022-09-21T11:52:15;16.80;99.90
18906;DHT22;9585;51.018;4.282;2022-09-21T11:54:59;16.70;99.90
18906;DHT22;9585;51.018;4.282;2022-09-21T11:57:35;16.70;99.90
18906;DHT22;9585;51.018;4.282;2022-09-21T12:00:16;16.60;99.90
18906;DHT22;9585;51.018;4.282;2022-09-21T12:03:09;16.50;99.90
18906;DHT22;9585;51.018;4.282;2022-09-21T12:05:54;16.50;99.90
18906;DHT22;9585;51.018;4.282;2022-09-21T12:08:49;16.60;99.90
18906;DHT22;9585;51.018;4.282;2022-09-21T12:11:28;16.60;99.90
18906;DHT22;9585;51.018;4.282;2022-09-21T12:14:02;16.70;99.90
18906;DHT22;9585;51.018;4.282;2022-09-21T12:16:39;16.90;99.90
18906;DHT22;9585;51.018;4.282;2022-09-21T12:19:16;17.40;99.90
18906;DHT22;9585;51.018;4.282;2022-09-21T12:21:50;17.80;99.90
18906;DHT22;9585;51.018;4.282;2022-09-21T12:24:22;18.00;99.90
18906;DHT22;9585;51.018;4.282;2022-09-21T12:27:00;17.80;99.90
18906;DHT22;9585;51.018;4.282;2022-09-21T12:29:44;17.90;99.90
18906;DHT22;9585;51.018;4.282;2022-09-21T12:32:24;17.40;99.90
18906;DHT22;9585;51.018;4.282;2022-09-21T12:35:01;17.00;99.90
18906;DHT22;9585;51.018;4.282;2022-09-21T12:37:44;17.10;99.90
18906;DHT22;9585;51.018;4.282;2022-09-21T12:40:17;17.40;99.90
18906;DHT22;9585;51.018;4.282;2022-09-21T12:43:04;17.30;99.90
18906;DHT22;9585;51.018;4.282;2022-09-21T12:45:44;17.30;99.90
18906;DHT22;9585;51.018;4.282;2022-09-21T12:48:21;17.30;99.90
18906;DHT22;9585;51.018;4.282;2022-09-21T12:50:56;17.60;99.90
18906;DHT22;9585;51.018;4.282;2022-09-21T12:53:29;18.30;99.90
18906;DHT22;9585;51.018;4.282;2022-09-21T12:56:05;18.70;99.90
18906;DHT22;9585;51.018;4.282;2022-09-21T12:58:46;19.10;99.90
18906;DHT22;9585;51.018;4.282;2022-09-21T13:01:24;18.80;99.90
18906;DHT22;9585;51.018;4.282;2022-09-21T13:04:28;18.40;99.90
18906;DHT22;9585;51.018;4.282;2022-09-21T13:10:47;17.80;99.90
18906;DHT22;9585;51.018;4.282;2022-09-21T13:13:49;17.80;99.90
18906;DHT22;9585;51.018;4.282;2022-09-21T13:16:25;17.70;99.90
18906;DHT22;9585;51.018;4.282;2022-09-21T13:19:19;17.70;99.90
18906;DHT22;9585;51.018;4.282;2022-09-21T13:22:22;17.60;99.90
18906;DHT22;9585;51.018;4.282;2022-09-21T13:24:59;17.60;99.90
18906;DHT22;9585;51.018;4.282;2022-09-21T13:28:00;17.50;99.90
18906;DHT22;9585;51.018;4.282;2022-09-21T13:30:35;17.40;99.90
18906;DHT22;9585;51.018;4.282;2022-09-21T13:33:28;17.40;99.90
18906;DHT22;9585;51.018;4.282;2022-09-21T13:39:13;17.30;99.90
18906;DHT22;9585;51.018;4.282;2022-09-21T13:41:42;17.20;99.90
18906;DHT22;9585;51.018;4.282;2022-09-21T13:44:34;17.10;99.90
18906;DHT22;9585;51.018;4.282;2022-09-21T13:47:27;17.10;99.90
18906;DHT22;9585;51.018;4.282;2022-09-21T13:49:56;17.10;99.90
18906;DHT22;9585;51.018;4.282;2022-09-21T13:52:51;17.10;99.90
18906;DHT22;9585;51.018;4.282;2022-09-21T13:55:37;17.20;99.90
18906;DHT22;9585;51.018;4.282;2022-09-21T13:58:18;17.40;99.90
18906;DHT22;9585;51.018;4.282;2022-09-21T14:00:54;17.50;99.90
18906;DHT22;9585;51.018;4.282;2022-09-21T14:03:38;17.50;99.90
18906;DHT22;9585;51.018;4.282;2022-09-21T14:06:16;17.30;99.90
18906;DHT22;9585;51.018;4.282;2022-09-21T14:08:53;17.20;99.90
18906;DHT22;9585;51.018;4.282;2022-09-21T14:11:29;17.10;99.90
18906;DHT22;9585;51.018;4.282;2022-09-21T14:14:06;17.00;99.90
18906;DHT22;9585;51.018;4.282;2022-09-21T14:17:02;16.90;99.90
18906;DHT22;9585;51.018;4.282;2022-09-21T14:20:04;17.00;99.90
18906;DHT22;9585;51.018;4.282;2022-09-21T14:22:40;17.10;99.90
18906;DHT22;9585;51.018;4.282;2022-09-21T14:25:27;17.10;99.90
18906;DHT22;9585;51.018;4.282;2022-09-21T14:28:03;17.10;99.90
18906;DHT22;9585;51.018;4.282;2022-09-21T14:30:33;17.30;99.90
18906;DHT22;9585;51.018;4.282;2022-09-21T14:33:29;17.40;99.90
18906;DHT22;9585;51.018;4.282;2022-09-21T14:36:18;17.50;99.90
18906;DHT22;9585;51.018;4.282;2022-09-21T14:38:56;17.40;99.90
18906;DHT22;9585;51.018;4.282;2022-09-21T14:41:37;17.50;99.90
18906;DHT22;9585;51.018;4.282;2022-09-21T14:44:18;17.40;99.90
18906;DHT22;9585;51.018;4.282;2022-09-21T14:47:04;17.10;99.90
18906;DHT22;9585;51.018;4.282;2022-09-21T14:50:05;16.90;99.90
18906;DHT22;9585;51.018;4.282;2022-09-21T14:56:08;16.40;99.90
18906;DHT22;9585;51.018;4.282;2022-09-21T14:58:52;16.30;99.90
18906;DHT22;9585;51.018;4.282;2022-09-21T15:01:36;16.30;99.90
18906;DHT22;9585;51.018;4.282;2022-09-21T15:07:13;16.10;99.90
18906;DHT22;9585;51.018;4.282;2022-09-21T15:10:17;15.90;99.90
18906;DHT22;9585;51.018;4.282;2022-09-21T15:19:26;15.60;99.90
18906;DHT22;9585;51.018;4.282;2022-09-21T15:24:48;15.50;99.90
18906;DHT22;9585;51.018;4.282;2022-09-21T15:27:19;15.40;99.90
18906;DHT22;9585;51.018;4.282;2022-09-21T15:29:49;15.40;99.90
18906;DHT22;9585;51.018;4.282;2022-09-21T15:32:34;15.50;99.90
18906;DHT22;9585;51.018;4.282;2022-09-21T15:35:11;15.60;99.90
18906;DHT22;9585;51.018;4.282;2022-09-21T15:37:43;15.60;99.90
18906;DHT22;9585;51.018;4.282;2022-09-21T15:40:17;15.70;99.90
18906;DHT22;9585;51.018;4.282;2022-09-21T15:43:03;15.80;99.90
18906;DHT22;9585;51.018;4.282;2022-09-21T15:45:36;15.80;99.90
18906;DHT22;9585;51.018;4.282;2022-09-21T15:48:11;15.80;99.90
18906;DHT22;9585;51.018;4.282;2022-09-21T15:50:49;15.90;99.90
18906;DHT22;9585;51.018;4.282;2022-09-21T15:53:22;16.00;99.90
18906;DHT22;9585;51.018;4.282;2022-09-21T15:55:53;16.10;99.90
18906;DHT22;9585;51.018;4.282;2022-09-21T15:58:27;16.30;99.90
18906;DHT22;9585;51.018;4.282;2022-09-21T16:00:56;16.50;99.90
18906;DHT22;9585;51.018;4.282;2022-09-21T16:03:24;16.60;99.90
18906;DHT22;9585;51.018;4.282;2022-09-21T16:05:55;16.70;99.90
18906;DHT22;9585;51.018;4.282;2022-09-21T16:08:32;16.80;99.90
18906;DHT22;9585;51.018;4.282;2022-09-21T16:11:12;16.90;99.90
18906;DHT22;9585;51.018;4.282;2022-09-21T16:13:45;17.00;99.90
18906;DHT22;9585;51.018;4.282;2022-09-21T16:16:35;17.10;99.90
18906;DHT22;9585;51.018;4.282;2022-09-21T16:19:41;17.10;99.90
18906;DHT22;9585;51.018;4.282;2022-09-21T16:22:36;17.10;99.90
18906;DHT22;9585;51.018;4.282;2022-09-21T16:25:42;17.10;99.90
18906;DHT22;9585;51.018;4.282;2022-09-21T16:28:29;16.90;99.90
18906;DHT22;9585;51.018;4.282;2022-09-21T16:31:28;16.70;99.90
18906;DHT22;9585;51.018;4.282;2022-09-21T16:34:28;16.60;99.90
18906;DHT22;9585;51.018;4.282;2022-09-21T16:37:45;16.50;99.90
18906;DHT22;9585;51.018;4.282;2022-09-21T16:40:33;16.30;99.90
18906;DHT22;9585;51.018;4.282;2022-09-21T16:43:21;16.10;99.90
18906;DHT22;9585;51.018;4.282;2022-09-21T16:46:14;15.90;99.90
18906;DHT22;9585;51.018;4.282;2022-09-21T16:48:44;15.70;99.90
18906;DHT22;9585;51.018;4.282;2022-09-21T16:51:13;15.40;99.90
18906;DHT22;9585;51.018;4.282;2022-09-21T16:53:51;15.40;99.90
18906;DHT22;9585;51.018;4.282;2022-09-21T16:56:21;15.30;99.90
18906;DHT22;9585;51.018;4.282;2022-09-21T16:58:52;15.30;99.90
18906;DHT22;9585;51.018;4.282;2022-09-21T17:01:25;15.20;99.90
18906;DHT22;9585;51.018;4.282;2022-09-21T17:03:52;15.20;99.90
18906;DHT22;9585;51.018;4.282;2022-09-21T17:06:21;15.20;99.90
18906;DHT22;9585;51.018;4.282;2022-09-21T17:08:50;15.10;99.90
18906;DHT22;9585;51.018;4.282;2022-09-21T17:11:18;15.00;99.90
18906;DHT22;9585;51.018;4.282;2022-09-21T17:13:49;14.90;99.90